sensor_id;sensor_type;location;lat;lon;timestamp;temperature;humidity
71396;DHT22;59888;55.814;37.132;2022-10-17T00:01:43;7.72;50.66
71396;DHT22;59888;55.814;37.132;2022-10-17T00:04:08;7.74;50.62
71396;DHT22;59888;55.814;37.132;2022-10-17T00:06:34;7.77;50.42
71396;DHT22;59888;55.814;37.132;2022-10-17T00:09:00;7.78;50.55
71396;DHT22;59888;55.814;37.132;2022-10-17T00:11:26;7.74;51.72
71396;DHT22;59888;55.814;37.132;2022-10-17T00:13:54;7.74;50.16
71396;DHT22;59888;55.814;37.132;2022-10-17T00:16:27;7.76;50.30
71396;DHT22;59888;55.814;37.132;2022-10-17T00:18:54;7.73;50.43
71396;DHT22;59888;55.814;37.132;2022-10-17T00:21:20;7.74;51.11
71396;DHT22;59888;55.814;37.132;2022-10-17T00:23:47;7.75;49.83
71396;DHT22;59888;55.814;37.132;2022-10-17T00:26:14;7.75;50.63
71396;DHT22;59888;55.814;37.132;2022-10-17T00:28:40;7.74;50.80
71396;DHT22;59888;55.814;37.132;2022-10-17T00:31:06;7.73;50.58
71396;DHT22;59888;55.814;37.132;2022-10-17T00:33:34;7.70;50.93
71396;DHT22;59888;55.814;37.132;2022-10-17T00:36:14;7.69;50.94
71396;DHT22;59888;55.814;37.132;2022-10-17T00:38:42;7.69;50.82
71396;DHT22;59888;55.814;37.132;2022-10-17T00:41:11;7.71;50.61
71396;DHT22;59888;55.814;37.132;2022-10-17T00:44:01;7.70;50.54
71396;DHT22;59888;55.814;37.132;2022-10-17T00:46:36;7.69;50.67
71396;DHT22;59888;55.814;37.132;2022-10-17T00:49:08;7.65;51.98
71396;DHT22;59888;55.814;37.132;2022-10-17T00:54:08;7.63;50.53
71396;DHT22;59888;55.814;37.132;2022-10-17T00:56:34;7.63;50.62
71396;DHT22;59888;55.814;37.132;2022-10-17T00:59:01;7.65;51.01
71396;DHT22;59888;55.814;37.132;2022-10-17T01:01:27;7.69;50.18
71396;DHT22;59888;55.814;37.132;2022-10-17T01:03:53;7.65;50.50
71396;DHT22;59888;55.814;37.132;2022-10-17T01:06:18;7.63;51.01
71396;DHT22;59888;55.814;37.132;2022-10-17T01:08:44;7.65;50.86
71396;DHT22;59888;55.814;37.132;2022-10-17T01:14:30;7.64;51.04
71396;DHT22;59888;55.814;37.132;2022-10-17T01:17:25;7.62;51.05
71396;DHT22;59888;55.814;37.132;2022-10-17T01:38:36;7.58;51.11
71396;DHT22;59888;55.814;37.132;2022-10-17T01:44:41;7.52;51.49
71396;DHT22;59888;55.814;37.132;2022-10-17T01:46:49;7.48;51.35
71396;DHT22;59888;55.814;37.132;2022-10-17T01:49:18;7.48;51.11
71396;DHT22;59888;55.814;37.132;2022-10-17T01:52:18;7.45;51.74
71396;DHT22;59888;55.814;37.132;2022-10-17T01:54:51;7.44;51.28
71396;DHT22;59888;55.814;37.132;2022-10-17T01:57:38;7.42;51.82
71396;DHT22;59888;55.814;37.132;2022-10-17T02:00:10;7.40;51.44
71396;DHT22;59888;55.814;37.132;2022-10-17T02:02:42;7.39;50.65
71396;DHT22;59888;55.814;37.132;2022-10-17T02:05:09;7.34;51.24
71396;DHT22;59888;55.814;37.132;2022-10-17T02:07:35;7.38;51.03
71396;DHT22;59888;55.814;37.132;2022-10-17T02:10:07;7.35;51.42
71396;DHT22;59888;55.814;37.132;2022-10-17T02:12:48;7.34;51.56
71396;DHT22;59888;55.814;37.132;2022-10-17T02:20:37;7.35;51.99
71396;DHT22;59888;55.814;37.132;2022-10-17T02:23:25;7.38;51.75
71396;DHT22;59888;55.814;37.132;2022-10-17T02:28:46;7.31;51.85
71396;DHT22;59888;55.814;37.132;2022-10-17T02:31:28;7.30;52.48
71396;DHT22;59888;55.814;37.132;2022-10-17T02:34:00;7.32;51.97
71396;DHT22;59888;55.814;37.132;2022-10-17T02:36:31;7.31;52.55
71396;DHT22;59888;55.814;37.132;2022-10-17T02:39:00;7.31;51.40
71396;DHT22;59888;55.814;37.132;2022-10-17T02:41:29;7.31;51.93
71396;DHT22;59888;55.814;37.132;2022-10-17T02:43:56;7.30;51.46
71396;DHT22;59888;55.814;37.132;2022-10-17T02:46:24;7.29;52.04
71396;DHT22;59888;55.814;37.132;2022-10-17T02:49:02;7.31;52.38
71396;DHT22;59888;55.814;37.132;2022-10-17T02:51:41;7.32;51.93
71396;DHT22;59888;55.814;37.132;2022-10-17T02:56:55;7.35;52.04
71396;DHT22;59888;55.814;37.132;2022-10-17T02:59:24;7.39;51.53
71396;DHT22;59888;55.814;37.132;2022-10-17T03:01:53;7.40;51.69
71396;DHT22;59888;55.814;37.132;2022-10-17T03:04:19;7.44;51.48
71396;DHT22;59888;55.814;37.132;2022-10-17T03:06:46;7.42;51.83
71396;DHT22;59888;55.814;37.132;2022-10-17T03:09:12;7.43;51.75
71396;DHT22;59888;55.814;37.132;2022-10-17T03:11:39;7.43;51.24
71396;DHT22;59888;55.814;37.132;2022-10-17T03:14:07;7.43;51.57
71396;DHT22;59888;55.814;37.132;2022-10-17T03:16:32;7.45;52.27
71396;DHT22;59888;55.814;37.132;2022-10-17T03:18:58;7.43;51.50
71396;DHT22;59888;55.814;37.132;2022-10-17T03:21:24;7.41;51.59
71396;DHT22;59888;55.814;37.132;2022-10-17T03:23:50;7.42;51.56
71396;DHT22;59888;55.814;37.132;2022-10-17T03:26:18;7.41;51.72
71396;DHT22;59888;55.814;37.132;2022-10-17T03:28:44;7.41;51.99
71396;DHT22;59888;55.814;37.132;2022-10-17T03:31:12;7.42;52.10
71396;DHT22;59888;55.814;37.132;2022-10-17T03:33:39;7.44;52.11
71396;DHT22;59888;55.814;37.132;2022-10-17T03:36:07;7.45;51.98
71396;DHT22;59888;55.814;37.132;2022-10-17T03:38:34;7.48;51.25
71396;DHT22;59888;55.814;37.132;2022-10-17T03:41:01;7.52;51.25
71396;DHT22;59888;55.814;37.132;2022-10-17T03:43:27;7.50;51.93
71396;DHT22;59888;55.814;37.132;2022-10-17T03:45:53;7.54;51.94
71396;DHT22;59888;55.814;37.132;2022-10-17T03:48:19;7.55;51.57
71396;DHT22;59888;55.814;37.132;2022-10-17T03:50:48;7.53;51.62
71396;DHT22;59888;55.814;37.132;2022-10-17T03:53:13;7.50;51.30
71396;DHT22;59888;55.814;37.132;2022-10-17T03:55:39;7.50;51.82
71396;DHT22;59888;55.814;37.132;2022-10-17T03:58:05;7.48;51.89
71396;DHT22;59888;55.814;37.132;2022-10-17T04:00:31;7.52;52.03
71396;DHT22;59888;55.814;37.132;2022-10-17T04:02:57;7.50;52.02
71396;DHT22;59888;55.814;37.132;2022-10-17T04:05:24;7.50;52.19
71396;DHT22;59888;55.814;37.132;2022-10-17T04:07:50;7.52;51.80
71396;DHT22;59888;55.814;37.132;2022-10-17T04:10:21;7.53;51.93
71396;DHT22;59888;55.814;37.132;2022-10-17T04:12:47;7.55;52.15
71396;DHT22;59888;55.814;37.132;2022-10-17T04:15:13;7.58;51.66
71396;DHT22;59888;55.814;37.132;2022-10-17T04:17:39;7.57;51.99
71396;DHT22;59888;55.814;37.132;2022-10-17T04:20:06;7.61;52.04
71396;DHT22;59888;55.814;37.132;2022-10-17T04:22:33;7.62;51.70
71396;DHT22;59888;55.814;37.132;2022-10-17T04:24:59;7.64;51.74
71396;DHT22;59888;55.814;37.132;2022-10-17T04:27:40;7.67;51.76
71396;DHT22;59888;55.814;37.132;2022-10-17T04:30:07;7.68;51.65
71396;DHT22;59888;55.814;37.132;2022-10-17T04:32:37;7.69;51.66
71396;DHT22;59888;55.814;37.132;2022-10-17T04:35:26;7.68;51.98
71396;DHT22;59888;55.814;37.132;2022-10-17T04:37:59;7.70;51.82
71396;DHT22;59888;55.814;37.132;2022-10-17T04:40:25;7.68;52.69
71396;DHT22;59888;55.814;37.132;2022-10-17T04:42:52;7.69;52.26
71396;DHT22;59888;55.814;37.132;2022-10-17T04:45:20;7.72;52.29
71396;DHT22;59888;55.814;37.132;2022-10-17T04:47:56;7.77;51.85
71396;DHT22;59888;55.814;37.132;2022-10-17T04:50:22;7.82;52.25
71396;DHT22;59888;55.814;37.132;2022-10-17T04:53:07;7.85;51.79
71396;DHT22;59888;55.814;37.132;2022-10-17T04:55:36;7.90;51.78
71396;DHT22;59888;55.814;37.132;2022-10-17T04:58:02;7.90;51.43
71396;DHT22;59888;55.814;37.132;2022-10-17T05:00:29;7.90;51.84
71396;DHT22;59888;55.814;37.132;2022-10-17T05:03:09;7.91;52.20
71396;DHT22;59888;55.814;37.132;2022-10-17T05:05:38;7.94;51.94
71396;DHT22;59888;55.814;37.132;2022-10-17T05:08:05;7.94;51.75
71396;DHT22;59888;55.814;37.132;2022-10-17T05:10:37;7.98;51.75
71396;DHT22;59888;55.814;37.132;2022-10-17T05:13:04;8.02;51.64
71396;DHT22;59888;55.814;37.132;2022-10-17T05:15:31;8.05;51.80
71396;DHT22;59888;55.814;37.132;2022-10-17T05:17:57;8.13;51.50
71396;DHT22;59888;55.814;37.132;2022-10-17T05:20:25;8.16;51.44
71396;DHT22;59888;55.814;37.132;2022-10-17T05:22:52;8.18;51.48
71396;DHT22;59888;55.814;37.132;2022-10-17T05:25:20;8.22;51.47
71396;DHT22;59888;55.814;37.132;2022-10-17T05:27:46;8.27;51.13
71396;DHT22;59888;55.814;37.132;2022-10-17T05:30:14;8.29;51.16
71396;DHT22;59888;55.814;37.132;2022-10-17T05:32:40;8.31;51.58
71396;DHT22;59888;55.814;37.132;2022-10-17T05:35:07;8.35;51.35
71396;DHT22;59888;55.814;37.132;2022-10-17T05:37:33;8.39;51.30
71396;DHT22;59888;55.814;37.132;2022-10-17T05:40:00;8.43;51.49
71396;DHT22;59888;55.814;37.132;2022-10-17T05:42:29;8.50;51.52
71396;DHT22;59888;55.814;37.132;2022-10-17T05:44:55;8.56;50.70
71396;DHT22;59888;55.814;37.132;2022-10-17T05:47:21;8.56;51.11
71396;DHT22;59888;55.814;37.132;2022-10-17T05:49:48;8.57;51.17
71396;DHT22;59888;55.814;37.132;2022-10-17T05:52:14;8.61;51.01
71396;DHT22;59888;55.814;37.132;2022-10-17T05:55:01;8.65;51.39
71396;DHT22;59888;55.814;37.132;2022-10-17T05:57:29;8.67;51.27
71396;DHT22;59888;55.814;37.132;2022-10-17T05:59:56;8.67;51.27
71396;DHT22;59888;55.814;37.132;2022-10-17T06:02:22;8.73;50.95
71396;DHT22;59888;55.814;37.132;2022-10-17T06:04:48;8.75;51.38
71396;DHT22;59888;55.814;37.132;2022-10-17T06:07:16;8.81;51.01
71396;DHT22;59888;55.814;37.132;2022-10-17T06:09:43;8.81;51.31
71396;DHT22;59888;55.814;37.132;2022-10-17T06:12:09;8.81;51.28
71396;DHT22;59888;55.814;37.132;2022-10-17T06:14:35;8.81;51.46
71396;DHT22;59888;55.814;37.132;2022-10-17T06:17:02;8.82;51.54
71396;DHT22;59888;55.814;37.132;2022-10-17T06:19:28;8.87;51.36
71396;DHT22;59888;55.814;37.132;2022-10-17T06:21:55;8.83;52.30
71396;DHT22;59888;55.814;37.132;2022-10-17T06:24:23;8.89;51.54
71396;DHT22;59888;55.814;37.132;2022-10-17T06:26:51;8.97;51.16
71396;DHT22;59888;55.814;37.132;2022-10-17T06:29:19;9.01;50.96
71396;DHT22;59888;55.814;37.132;2022-10-17T06:31:47;9.06;51.07
71396;DHT22;59888;55.814;37.132;2022-10-17T06:34:13;9.19;50.92
71396;DHT22;59888;55.814;37.132;2022-10-17T06:36:39;9.25;50.59
71396;DHT22;59888;55.814;37.132;2022-10-17T06:39:06;9.36;50.64
71396;DHT22;59888;55.814;37.132;2022-10-17T06:41:38;9.48;50.43
71396;DHT22;59888;55.814;37.132;2022-10-17T06:44:07;9.53;50.27
71396;DHT22;59888;55.814;37.132;2022-10-17T06:46:51;9.57;50.33
71396;DHT22;59888;55.814;37.132;2022-10-17T06:49:17;9.59;50.42
71396;DHT22;59888;55.814;37.132;2022-10-17T06:52:01;9.61;50.15
71396;DHT22;59888;55.814;37.132;2022-10-17T06:54:39;9.46;50.67
71396;DHT22;59888;55.814;37.132;2022-10-17T06:57:17;9.36;50.76
71396;DHT22;59888;55.814;37.132;2022-10-17T07:00:06;9.35;50.98
71396;DHT22;59888;55.814;37.132;2022-10-17T07:02:41;9.35;50.97
71396;DHT22;59888;55.814;37.132;2022-10-17T07:05:08;9.38;51.27
71396;DHT22;59888;55.814;37.132;2022-10-17T07:07:34;9.38;51.42
71396;DHT22;59888;55.814;37.132;2022-10-17T07:10:03;9.36;51.47
71396;DHT22;59888;55.814;37.132;2022-10-17T07:12:34;9.39;51.79
71396;DHT22;59888;55.814;37.132;2022-10-17T07:15:00;9.40;51.72
71396;DHT22;59888;55.814;37.132;2022-10-17T07:17:29;9.42;51.53
71396;DHT22;59888;55.814;37.132;2022-10-17T07:19:55;9.48;51.49
71396;DHT22;59888;55.814;37.132;2022-10-17T07:22:22;9.51;51.50
71396;DHT22;59888;55.814;37.132;2022-10-17T07:24:50;9.59;51.43
71396;DHT22;59888;55.814;37.132;2022-10-17T07:27:24;9.59;51.11
71396;DHT22;59888;55.814;37.132;2022-10-17T07:29:50;9.52;51.59
71396;DHT22;59888;55.814;37.132;2022-10-17T07:32:36;9.47;51.50
71396;DHT22;59888;55.814;37.132;2022-10-17T07:35:03;9.50;51.17
71396;DHT22;59888;55.814;37.132;2022-10-17T07:37:29;9.49;51.31
71396;DHT22;59888;55.814;37.132;2022-10-17T07:39:55;9.46;51.75
71396;DHT22;59888;55.814;37.132;2022-10-17T07:42:21;9.47;51.54
71396;DHT22;59888;55.814;37.132;2022-10-17T07:44:48;9.46;52.20
71396;DHT22;59888;55.814;37.132;2022-10-17T07:47:15;9.47;51.95
71396;DHT22;59888;55.814;37.132;2022-10-17T07:49:41;9.51;52.86
71396;DHT22;59888;55.814;37.132;2022-10-17T07:52:12;9.47;52.56
71396;DHT22;59888;55.814;37.132;2022-10-17T07:54:38;9.47;53.84
71396;DHT22;59888;55.814;37.132;2022-10-17T07:57:04;9.50;52.57
71396;DHT22;59888;55.814;37.132;2022-10-17T07:59:32;9.51;52.95
71396;DHT22;59888;55.814;37.132;2022-10-17T08:01:57;9.50;52.93
71396;DHT22;59888;55.814;37.132;2022-10-17T08:04:25;9.46;53.39
71396;DHT22;59888;55.814;37.132;2022-10-17T08:06:51;9.40;53.22
71396;DHT22;59888;55.814;37.132;2022-10-17T08:09:17;9.36;53.49
71396;DHT22;59888;55.814;37.132;2022-10-17T08:11:42;9.35;53.53
71396;DHT22;59888;55.814;37.132;2022-10-17T08:14:12;9.31;54.49
71396;DHT22;59888;55.814;37.132;2022-10-17T08:16:41;9.36;53.43
71396;DHT22;59888;55.814;37.132;2022-10-17T08:19:07;9.40;54.13
71396;DHT22;59888;55.814;37.132;2022-10-17T08:21:36;9.44;53.89
71396;DHT22;59888;55.814;37.132;2022-10-17T08:24:03;9.44;54.24
71396;DHT22;59888;55.814;37.132;2022-10-17T08:26:29;9.52;53.70
71396;DHT22;59888;55.814;37.132;2022-10-17T08:28:55;9.62;53.32
71396;DHT22;59888;55.814;37.132;2022-10-17T08:31:21;9.66;52.77
71396;DHT22;59888;55.814;37.132;2022-10-17T08:33:48;9.67;52.98
71396;DHT22;59888;55.814;37.132;2022-10-17T08:36:18;9.70;52.91
71396;DHT22;59888;55.814;37.132;2022-10-17T08:38:44;9.67;53.36
71396;DHT22;59888;55.814;37.132;2022-10-17T08:41:42;9.60;53.59
71396;DHT22;59888;55.814;37.132;2022-10-17T08:46:37;9.44;55.24
71396;DHT22;59888;55.814;37.132;2022-10-17T08:49:33;9.42;55.79
71396;DHT22;59888;55.814;37.132;2022-10-17T08:52:02;9.38;55.42
71396;DHT22;59888;55.814;37.132;2022-10-17T08:54:39;9.38;54.55
71396;DHT22;59888;55.814;37.132;2022-10-17T08:57:13;9.30;55.92
71396;DHT22;59888;55.814;37.132;2022-10-17T08:59:40;9.27;55.85
71396;DHT22;59888;55.814;37.132;2022-10-17T09:02:35;9.23;56.63
71396;DHT22;59888;55.814;37.132;2022-10-17T09:08:04;9.02;58.32
71396;DHT22;59888;55.814;37.132;2022-10-17T09:18:45;8.77;58.65
71396;DHT22;59888;55.814;37.132;2022-10-17T09:21:24;8.85;57.44
71396;DHT22;59888;55.814;37.132;2022-10-17T09:23:58;8.83;58.47
71396;DHT22;59888;55.814;37.132;2022-10-17T09:26:25;8.80;58.09
71396;DHT22;59888;55.814;37.132;2022-10-17T09:28:53;8.73;60.49
71396;DHT22;59888;55.814;37.132;2022-10-17T09:31:34;8.71;60.16
71396;DHT22;59888;55.814;37.132;2022-10-17T09:34:08;8.78;59.28
71396;DHT22;59888;55.814;37.132;2022-10-17T09:36:38;8.86;59.57
71396;DHT22;59888;55.814;37.132;2022-10-17T09:39:13;8.78;60.76
71396;DHT22;59888;55.814;37.132;2022-10-17T09:41:48;8.79;60.11
71396;DHT22;59888;55.814;37.132;2022-10-17T09:44:43;8.80;60.87
71396;DHT22;59888;55.814;37.132;2022-10-17T09:49:42;8.83;60.28
71396;DHT22;59888;55.814;37.132;2022-10-17T09:52:21;8.97;59.52
71396;DHT22;59888;55.814;37.132;2022-10-17T09:54:52;9.00;59.35
71396;DHT22;59888;55.814;37.132;2022-10-17T09:57:20;9.11;59.33
71396;DHT22;59888;55.814;37.132;2022-10-17T10:00:02;9.23;59.43
71396;DHT22;59888;55.814;37.132;2022-10-17T10:02:39;9.25;58.14
71396;DHT22;59888;55.814;37.132;2022-10-17T10:05:18;9.24;59.73
71396;DHT22;59888;55.814;37.132;2022-10-17T10:08:02;9.29;60.25
71396;DHT22;59888;55.814;37.132;2022-10-17T10:10:30;9.36;59.16
71396;DHT22;59888;55.814;37.132;2022-10-17T10:13:20;9.40;60.85
71396;DHT22;59888;55.814;37.132;2022-10-17T10:15:49;9.40;58.06
71396;DHT22;59888;55.814;37.132;2022-10-17T10:18:34;9.31;60.12
71396;DHT22;59888;55.814;37.132;2022-10-17T10:21:16;9.22;60.71
71396;DHT22;59888;55.814;37.132;2022-10-17T10:29:19;9.17;60.26
71396;DHT22;59888;55.814;37.132;2022-10-17T10:31:47;9.17;60.17
71396;DHT22;59888;55.814;37.132;2022-10-17T10:34:21;9.12;60.18
71396;DHT22;59888;55.814;37.132;2022-10-17T10:37:06;9.18;59.86
71396;DHT22;59888;55.814;37.132;2022-10-17T10:39:54;9.07;61.38
71396;DHT22;59888;55.814;37.132;2022-10-17T10:44:49;9.00;61.05
71396;DHT22;59888;55.814;37.132;2022-10-17T10:47:25;9.05;61.79
71396;DHT22;59888;55.814;37.132;2022-10-17T10:50:06;8.98;62.60
71396;DHT22;59888;55.814;37.132;2022-10-17T10:52:42;9.01;62.15
71396;DHT22;59888;55.814;37.132;2022-10-17T10:55:22;9.05;61.93
71396;DHT22;59888;55.814;37.132;2022-10-17T10:57:50;9.11;61.76
71396;DHT22;59888;55.814;37.132;2022-10-17T11:00:21;9.06;62.76
71396;DHT22;59888;55.814;37.132;2022-10-17T11:08:46;9.06;63.61
71396;DHT22;59888;55.814;37.132;2022-10-17T11:11:27;9.02;63.40
71396;DHT22;59888;55.814;37.132;2022-10-17T11:14:01;9.03;64.30
71396;DHT22;59888;55.814;37.132;2022-10-17T11:19:30;9.02;62.83
71396;DHT22;59888;55.814;37.132;2022-10-17T11:22:20;9.05;64.95
71396;DHT22;59888;55.814;37.132;2022-10-17T11:24:52;9.06;64.09
71396;DHT22;59888;55.814;37.132;2022-10-17T11:27:28;9.09;64.02
71396;DHT22;59888;55.814;37.132;2022-10-17T11:29:55;9.08;63.98
71396;DHT22;59888;55.814;37.132;2022-10-17T11:32:38;9.04;64.81
71396;DHT22;59888;55.814;37.132;2022-10-17T11:35:14;9.07;63.85
71396;DHT22;59888;55.814;37.132;2022-10-17T11:37:45;9.09;65.92
71396;DHT22;59888;55.814;37.132;2022-10-17T11:40:35;9.09;65.74
71396;DHT22;59888;55.814;37.132;2022-10-17T11:43:09;9.14;64.66
71396;DHT22;59888;55.814;37.132;2022-10-17T11:48:30;9.17;65.50
71396;DHT22;59888;55.814;37.132;2022-10-17T11:51:16;9.15;66.33
71396;DHT22;59888;55.814;37.132;2022-10-17T11:54:12;9.09;66.66
71396;DHT22;59888;55.814;37.132;2022-10-17T11:57:23;9.17;66.00
71396;DHT22;59888;55.814;37.132;2022-10-17T12:02:27;9.18;66.27
71396;DHT22;59888;55.814;37.132;2022-10-17T12:10:32;9.12;65.75
71396;DHT22;59888;55.814;37.132;2022-10-17T12:15:55;9.17;65.96
71396;DHT22;59888;55.814;37.132;2022-10-17T12:18:23;9.16;67.19
71396;DHT22;59888;55.814;37.132;2022-10-17T12:20:57;9.10;68.13
71396;DHT22;59888;55.814;37.132;2022-10-17T12:23:30;9.12;66.24
71396;DHT22;59888;55.814;37.132;2022-10-17T12:26:01;9.14;65.50
71396;DHT22;59888;55.814;37.132;2022-10-17T12:33:52;9.11;67.43
71396;DHT22;59888;55.814;37.132;2022-10-17T12:46:44;9.17;68.47
71396;DHT22;59888;55.814;37.132;2022-10-17T12:49:41;9.11;68.67
71396;DHT22;59888;55.814;37.132;2022-10-17T13:00:43;9.21;68.00
71396;DHT22;59888;55.814;37.132;2022-10-17T13:03:17;9.21;69.03
71396;DHT22;59888;55.814;37.132;2022-10-17T13:05:50;9.24;66.83
71396;DHT22;59888;55.814;37.132;2022-10-17T13:08:20;9.25;68.84
71396;DHT22;59888;55.814;37.132;2022-10-17T13:10:49;9.26;68.30
71396;DHT22;59888;55.814;37.132;2022-10-17T13:13:25;9.26;68.55
71396;DHT22;59888;55.814;37.132;2022-10-17T13:15:58;9.30;67.92
71396;DHT22;59888;55.814;37.132;2022-10-17T13:18:27;9.32;68.38
71396;DHT22;59888;55.814;37.132;2022-10-17T13:21:13;9.36;68.42
71396;DHT22;59888;55.814;37.132;2022-10-17T13:23:40;9.38;68.22
71396;DHT22;59888;55.814;37.132;2022-10-17T13:26:17;9.40;67.94
71396;DHT22;59888;55.814;37.132;2022-10-17T13:29:05;9.44;69.06
71396;DHT22;59888;55.814;37.132;2022-10-17T13:31:39;9.44;67.45
71396;DHT22;59888;55.814;37.132;2022-10-17T13:34:24;9.50;67.54
71396;DHT22;59888;55.814;37.132;2022-10-17T13:36:57;9.53;67.46
71396;DHT22;59888;55.814;37.132;2022-10-17T13:39:26;9.59;68.12
71396;DHT22;59888;55.814;37.132;2022-10-17T13:41:54;9.65;67.62
71396;DHT22;59888;55.814;37.132;2022-10-17T13:44:23;10.08;67.33
71396;DHT22;59888;55.814;37.132;2022-10-17T13:46:50;10.72;64.93
71396;DHT22;59888;55.814;37.132;2022-10-17T13:51:49;11.31;63.89
71396;DHT22;59888;55.814;37.132;2022-10-17T13:54:39;11.08;63.89
71396;DHT22;59888;55.814;37.132;2022-10-17T13:57:19;10.84;64.33
71396;DHT22;59888;55.814;37.132;2022-10-17T13:59:48;10.70;64.14
71396;DHT22;59888;55.814;37.132;2022-10-17T14:02:29;10.53;64.91
71396;DHT22;59888;55.814;37.132;2022-10-17T14:07:42;10.28;65.47
71396;DHT22;59888;55.814;37.132;2022-10-17T14:10:37;10.19;66.01
71396;DHT22;59888;55.814;37.132;2022-10-17T14:13:05;10.10;65.75
71396;DHT22;59888;55.814;37.132;2022-10-17T14:15:35;10.03;66.24
71396;DHT22;59888;55.814;37.132;2022-10-17T14:18:07;9.91;66.14
71396;DHT22;59888;55.814;37.132;2022-10-17T14:20:34;9.84;66.62
71396;DHT22;59888;55.814;37.132;2022-10-17T14:23:01;9.78;65.93
71396;DHT22;59888;55.814;37.132;2022-10-17T14:25:27;9.70;66.50
71396;DHT22;59888;55.814;37.132;2022-10-17T14:28:00;9.66;66.33
71396;DHT22;59888;55.814;37.132;2022-10-17T14:30:53;9.56;67.49
71396;DHT22;59888;55.814;37.132;2022-10-17T14:33:26;9.52;66.85
71396;DHT22;59888;55.814;37.132;2022-10-17T14:35:53;9.47;67.14
71396;DHT22;59888;55.814;37.132;2022-10-17T14:38:19;9.45;66.54
71396;DHT22;59888;55.814;37.132;2022-10-17T14:40:59;9.35;69.08
71396;DHT22;59888;55.814;37.132;2022-10-17T14:43:28;9.34;67.54
71396;DHT22;59888;55.814;37.132;2022-10-17T14:45:59;9.31;68.92
71396;DHT22;59888;55.814;37.132;2022-10-17T14:48:27;9.29;67.94
71396;DHT22;59888;55.814;37.132;2022-10-17T14:51:12;9.25;69.36
71396;DHT22;59888;55.814;37.132;2022-10-17T14:53:41;9.27;68.68
71396;DHT22;59888;55.814;37.132;2022-10-17T14:56:33;9.23;69.00
71396;DHT22;59888;55.814;37.132;2022-10-17T14:58:59;9.21;68.12
71396;DHT22;59888;55.814;37.132;2022-10-17T15:01:27;9.20;68.61
71396;DHT22;59888;55.814;37.132;2022-10-17T15:03:53;9.26;68.55
71396;DHT22;59888;55.814;37.132;2022-10-17T15:06:30;9.30;67.62
71396;DHT22;59888;55.814;37.132;2022-10-17T15:08:57;9.30;68.30
71396;DHT22;59888;55.814;37.132;2022-10-17T15:11:23;9.30;69.01
71396;DHT22;59888;55.814;37.132;2022-10-17T15:13:50;9.33;68.55
71396;DHT22;59888;55.814;37.132;2022-10-17T15:16:24;9.37;68.71
71396;DHT22;59888;55.814;37.132;2022-10-17T15:18:50;9.37;68.66
71396;DHT22;59888;55.814;37.132;2022-10-17T15:21:19;9.38;68.25
71396;DHT22;59888;55.814;37.132;2022-10-17T15:23:45;9.48;67.72
71396;DHT22;59888;55.814;37.132;2022-10-17T15:26:20;9.52;68.16
71396;DHT22;59888;55.814;37.132;2022-10-17T15:28:48;9.54;67.80
71396;DHT22;59888;55.814;37.132;2022-10-17T15:31:16;9.51;70.26
71396;DHT22;59888;55.814;37.132;2022-10-17T15:33:43;9.56;68.05
71396;DHT22;59888;55.814;37.132;2022-10-17T15:36:31;9.59;68.19
71396;DHT22;59888;55.814;37.132;2022-10-17T15:39:00;9.61;68.58
71396;DHT22;59888;55.814;37.132;2022-10-17T15:41:28;9.60;68.77
71396;DHT22;59888;55.814;37.132;2022-10-17T15:43:54;9.59;69.91
71396;DHT22;59888;55.814;37.132;2022-10-17T15:46:22;9.62;68.67
71396;DHT22;59888;55.814;37.132;2022-10-17T15:48:50;9.67;68.39
71396;DHT22;59888;55.814;37.132;2022-10-17T15:51:16;9.71;67.99
71396;DHT22;59888;55.814;37.132;2022-10-17T15:53:42;9.79;67.73
71396;DHT22;59888;55.814;37.132;2022-10-17T15:56:24;9.76;69.14
71396;DHT22;59888;55.814;37.132;2022-10-17T15:58:51;9.79;68.44
71396;DHT22;59888;55.814;37.132;2022-10-17T16:01:26;9.80;68.65
71396;DHT22;59888;55.814;37.132;2022-10-17T16:03:53;9.82;69.10
71396;DHT22;59888;55.814;37.132;2022-10-17T16:06:19;9.83;69.21
71396;DHT22;59888;55.814;37.132;2022-10-17T16:08:46;9.88;69.90
71396;DHT22;59888;55.814;37.132;2022-10-17T16:11:38;9.92;68.43
71396;DHT22;59888;55.814;37.132;2022-10-17T16:14:05;9.93;68.39
71396;DHT22;59888;55.814;37.132;2022-10-17T16:16:31;9.99;68.26
71396;DHT22;59888;55.814;37.132;2022-10-17T16:18:57;10.05;67.59
71396;DHT22;59888;55.814;37.132;2022-10-17T16:21:25;10.06;68.75
71396;DHT22;59888;55.814;37.132;2022-10-17T16:23:52;10.09;67.91
71396;DHT22;59888;55.814;37.132;2022-10-17T16:26:18;10.11;68.32
71396;DHT22;59888;55.814;37.132;2022-10-17T16:28:44;10.11;68.50
71396;DHT22;59888;55.814;37.132;2022-10-17T16:31:34;10.13;68.30
71396;DHT22;59888;55.814;37.132;2022-10-17T16:34:02;10.16;67.81
71396;DHT22;59888;55.814;37.132;2022-10-17T16:36:28;10.22;68.47
71396;DHT22;59888;55.814;37.132;2022-10-17T16:38:55;10.24;68.33
71396;DHT22;59888;55.814;37.132;2022-10-17T16:41:30;10.25;69.15
71396;DHT22;59888;55.814;37.132;2022-10-17T16:43:59;10.27;68.55
71396;DHT22;59888;55.814;37.132;2022-10-17T16:46:27;10.33;68.04
71396;DHT22;59888;55.814;37.132;2022-10-17T16:48:54;10.33;68.07
71396;DHT22;59888;55.814;37.132;2022-10-17T16:51:20;10.35;68.36
71396;DHT22;59888;55.814;37.132;2022-10-17T16:53:48;10.39;68.05
71396;DHT22;59888;55.814;37.132;2022-10-17T16:56:17;10.38;68.50
71396;DHT22;59888;55.814;37.132;2022-10-17T16:58:43;10.41;68.38
71396;DHT22;59888;55.814;37.132;2022-10-17T17:01:15;10.43;68.93
71396;DHT22;59888;55.814;37.132;2022-10-17T17:03:42;10.46;68.14
71396;DHT22;59888;55.814;37.132;2022-10-17T17:06:11;10.46;68.97
71396;DHT22;59888;55.814;37.132;2022-10-17T17:08:38;10.46;68.27
71396;DHT22;59888;55.814;37.132;2022-10-17T17:11:08;10.44;68.77
71396;DHT22;59888;55.814;37.132;2022-10-17T17:13:34;10.44;68.53
71396;DHT22;59888;55.814;37.132;2022-10-17T17:18:34;10.42;68.32
71396;DHT22;59888;55.814;37.132;2022-10-17T17:21:02;10.43;68.39
71396;DHT22;59888;55.814;37.132;2022-10-17T17:23:29;10.44;68.30
71396;DHT22;59888;55.814;37.132;2022-10-17T17:26:00;10.43;68.26
71396;DHT22;59888;55.814;37.132;2022-10-17T17:28:26;10.42;69.05
71396;DHT22;59888;55.814;37.132;2022-10-17T17:30:53;10.44;68.83
71396;DHT22;59888;55.814;37.132;2022-10-17T17:33:21;10.46;68.58
71396;DHT22;59888;55.814;37.132;2022-10-17T17:35:47;10.46;68.71
71396;DHT22;59888;55.814;37.132;2022-10-17T17:38:18;10.46;68.71
71396;DHT22;59888;55.814;37.132;2022-10-17T17:40:48;10.46;68.91
71396;DHT22;59888;55.814;37.132;2022-10-17T17:43:14;10.46;68.18
71396;DHT22;59888;55.814;37.132;2022-10-17T17:45:39;10.48;68.50
71396;DHT22;59888;55.814;37.132;2022-10-17T17:48:05;10.48;68.26
71396;DHT22;59888;55.814;37.132;2022-10-17T17:50:31;10.48;67.93
71396;DHT22;59888;55.814;37.132;2022-10-17T17:52:57;10.44;68.43